Airfield :
LOGIN :

Register | Disclaimer

   EN    FR    IT 

 










Legend :    VFR   Marginal VFR   IFR   Intensive IFR   Very Intensive IFR
Visi :
Ceiling :
>= 8 km
>= 3000ft
5 to 8 km
1000 to 3000 ft
1500m to 5 km
500 to 1000 ft
800 to 1500m
200 to 500 ft
< 800m
< 200 ft
Symbols :   Thunderstorms  Fog  Heavy snow  Heavy precipitations  Wind > 20 kt
SIGMETs :     Misc.  Thunderstorms  Icing  Turbulence  Mountain Waves  Volcanic Ashes






- Airport Elevation : 386 ft
- IATA code : QOE


ETNN - Nörvenich Airforce Base

CURRENT METAR :
  • 290920Z 15002KT 9999 FEW040 BKN210 12/07 Q1002 BLU+BLU+

EXPIRED METARs :
  • 290820Z VRB02KT 9999 BKN210 10/06 Q1002 BLU+BLU+
  • 290720Z 16003KT 9999 FEW040 BKN220 07/05 Q1001 BLU+BLU+

TAF TAF ETNN
Valid from the 29 at 08:00 until the 29 at 17:00 UTC


290717Z 2908/2917 11004KT 9999 NSW FEW040 BKN220 BY ETGL



MET'MAP, your aeronautical weather chart ! - Copyright ORBIFLY December 2007 - Disclaimer

ORBIFLY MET'MAP TEAM :

Programming & Development : Alexandra Zaïnal
Original concept : Baudouin d'Aumeries
Technical & hardware support : Manuel Goepfert
Assistance : Marc-Olivier Méhu




SOURCES & CREDITS :

   NOAA